createdAt,value
2019-02-08T00:00:43.986Z,1008.05
2019-02-08T00:01:43.970Z,1008.11
2019-02-08T00:02:44.008Z,1008.07
2019-02-08T00:03:43.944Z,1008.07
2019-02-08T00:04:43.945Z,1008.06
2019-02-08T00:05:43.936Z,1008.07
2019-02-08T00:06:43.933Z,1008.10
2019-02-08T00:07:43.899Z,1008.08
2019-02-08T00:08:43.906Z,1008.12
2019-02-08T00:09:43.886Z,1008.07
2019-02-08T00:10:43.874Z,1008.06
2019-02-08T00:11:43.859Z,1008.03
2019-02-08T00:12:43.873Z,1008.04
2019-02-08T00:13:43.882Z,1008.08
2019-02-08T00:14:43.850Z,1008.04
2019-02-08T00:15:43.826Z,1008.05
2019-02-08T00:16:43.803Z,1008.05
2019-02-08T00:17:43.789Z,1008.12
2019-02-08T00:18:43.786Z,1008.12
2019-02-08T00:19:43.779Z,1008.16
2019-02-08T00:20:43.763Z,1008.14
2019-02-08T00:21:43.749Z,1008.14
2019-02-08T00:22:43.759Z,1008.13
2019-02-08T00:23:43.720Z,1008.15
2019-02-08T00:24:43.805Z,1008.17
2019-02-08T00:25:43.708Z,1008.17
2019-02-08T00:26:43.695Z,1008.11
2019-02-08T00:27:43.674Z,1008.15
2019-02-08T00:28:43.695Z,1008.14
2019-02-08T00:29:43.687Z,1008.11
2019-02-08T00:30:43.651Z,1008.15
2019-02-08T00:31:43.628Z,1008.13
2019-02-08T00:32:43.629Z,1008.14
2019-02-08T00:33:43.611Z,1008.09
2019-02-08T00:34:43.597Z,1008.12
2019-02-08T00:35:43.635Z,1008.14
2019-02-08T00:36:43.580Z,1008.11
2019-02-08T00:37:43.566Z,1008.11
2019-02-08T00:38:43.549Z,1008.09
2019-02-08T00:39:43.537Z,1008.06
2019-02-08T00:40:43.546Z,1008.07
2019-02-08T00:41:43.536Z,1008.07
2019-02-08T00:42:43.505Z,1008.12
2019-02-08T00:43:43.492Z,1008.10
2019-02-08T00:44:43.484Z,1008.09
2019-02-08T00:45:43.493Z,1008.08
2019-02-08T00:46:43.480Z,1008.08
2019-02-08T00:47:43.484Z,1008.06
2019-02-08T00:48:43.438Z,1008.05
2019-02-08T00:49:43.432Z,1008.04
2019-02-08T00:50:43.430Z,1008.03
2019-02-08T00:51:43.411Z,1008.07
2019-02-08T00:52:43.405Z,1008.06
2019-02-08T00:53:43.430Z,1008.06
2019-02-08T00:54:43.439Z,1008.04
2019-02-08T00:55:43.367Z,1008.07
2019-02-08T00:56:43.347Z,1008.06
2019-02-08T00:57:43.342Z,1008.07
2019-02-08T00:58:43.324Z,1008.06
2019-02-08T00:59:43.322Z,1008.05
2019-02-08T01:00:43.334Z,1008.09
2019-02-08T01:01:43.291Z,1008.09
2019-02-08T01:02:43.282Z,1008.09
2019-02-08T01:03:43.283Z,1008.08
2019-02-08T01:04:43.263Z,1008.03
2019-02-08T01:05:43.256Z,1008.05
2019-02-08T01:06:43.239Z,1008.05
2019-02-08T01:07:43.280Z,1008.07
2019-02-08T01:08:43.214Z,1008.04
2019-02-08T01:09:43.212Z,1008.03
2019-02-08T01:10:43.200Z,1008.03
2019-02-08T01:11:43.181Z,1008.05
2019-02-08T01:12:43.168Z,1008.05
2019-02-08T01:13:43.208Z,1008.04
2019-02-08T01:14:43.153Z,1008.07
2019-02-08T01:15:43.155Z,1008.10
2019-02-08T01:16:43.123Z,1008.02
2019-02-08T01:17:43.119Z,1008.03
2019-02-08T01:18:43.102Z,1008.00
2019-02-08T01:19:43.096Z,1008.00
2019-02-08T01:20:43.093Z,1008.04
2019-02-08T01:21:43.101Z,1007.94
2019-02-08T01:22:43.107Z,1007.95
2019-02-08T01:23:43.049Z,1007.92
2019-02-08T01:24:43.081Z,1007.91
2019-02-08T01:25:43.035Z,1007.88
2019-02-08T01:26:43.028Z,1007.85
2019-02-08T01:27:43.003Z,1007.86
2019-02-08T01:28:42.989Z,1007.90
2019-02-08T01:29:43.033Z,1007.87
2019-02-08T01:30:42.973Z,1007.89
2019-02-08T01:31:42.961Z,1007.87
2019-02-08T01:32:42.995Z,1007.89
2019-02-08T01:33:42.961Z,1007.90
2019-02-08T01:34:42.930Z,1007.92
2019-02-08T01:35:42.941Z,1007.92
2019-02-08T01:36:42.901Z,1007.94
2019-02-08T01:37:42.912Z,1007.94
2019-02-08T01:38:42.876Z,1007.98
2019-02-08T01:39:42.867Z,1007.96
2019-02-08T01:40:42.855Z,1007.96
2019-02-08T01:41:42.856Z,1007.98
2019-02-08T01:42:42.855Z,1008.01
2019-02-08T01:43:42.825Z,1008.04
2019-02-08T01:44:42.843Z,1008.00
2019-02-08T01:45:42.808Z,1008.03
2019-02-08T01:46:42.801Z,1008.03
2019-02-08T01:47:42.792Z,1008.01
2019-02-08T01:48:42.768Z,1007.96
2019-02-08T01:49:42.751Z,1007.95
2019-02-08T01:50:42.744Z,1007.95
2019-02-08T01:51:42.766Z,1007.95
2019-02-08T01:52:42.729Z,1007.95
2019-02-08T01:53:48.483Z,1007.92
2019-02-08T01:54:43.745Z,1007.92
2019-02-08T01:55:42.689Z,1007.92
2019-02-08T01:56:42.681Z,1007.94
2019-02-08T01:57:42.667Z,1007.92
2019-02-08T01:58:42.673Z,1007.89
2019-02-08T01:59:42.667Z,1007.89
2019-02-08T02:00:42.628Z,1007.90
2019-02-08T02:01:42.643Z,1007.89
2019-02-08T02:02:42.614Z,1007.92
2019-02-08T02:03:42.596Z,1007.89
2019-02-08T02:04:42.630Z,1007.90
2019-02-08T02:05:42.572Z,1007.90
2019-02-08T02:06:42.577Z,1007.94
2019-02-08T02:07:42.554Z,1007.89
2019-02-08T02:08:42.540Z,1007.91
2019-02-08T02:09:42.535Z,1007.95
2019-02-08T02:10:42.518Z,1007.93
2019-02-08T02:11:42.520Z,1007.93
2019-02-08T02:12:42.536Z,1007.94
2019-02-08T02:13:42.484Z,1007.96
2019-02-08T02:14:42.485Z,1008.00
2019-02-08T02:15:42.464Z,1007.98
2019-02-08T02:16:42.464Z,1007.95
2019-02-08T02:17:42.442Z,1008.01
2019-02-08T02:18:42.463Z,1007.96
2019-02-08T02:19:42.417Z,1007.95
2019-02-08T02:20:42.408Z,1008.00
2019-02-08T02:21:42.410Z,1007.98
2019-02-08T02:22:42.394Z,1007.98
2019-02-08T02:23:42.379Z,1008.01
2019-02-08T02:24:42.477Z,1007.99
2019-02-08T02:25:42.349Z,1007.98
2019-02-08T02:26:42.347Z,1007.98
2019-02-08T02:27:42.326Z,1008.03
2019-02-08T02:28:42.343Z,1007.97
2019-02-08T02:29:42.309Z,1007.98
2019-02-08T02:30:42.331Z,1007.98
2019-02-08T02:31:42.293Z,1007.97
2019-02-08T02:32:42.283Z,1008.00
2019-02-08T02:33:42.265Z,1007.99
2019-02-08T02:34:42.252Z,1008.00
2019-02-08T02:35:42.251Z,1008.00
2019-02-08T02:36:42.288Z,1008.02
2019-02-08T02:37:42.215Z,1007.98
2019-02-08T02:38:42.209Z,1007.98
2019-02-08T02:39:42.198Z,1008.01
2019-02-08T02:40:42.186Z,1007.99
2019-02-08T02:41:42.177Z,1008.01
2019-02-08T02:42:42.176Z,1007.99
2019-02-08T02:43:42.149Z,1008.02
2019-02-08T02:44:42.144Z,1008.00
2019-02-08T02:45:42.129Z,1008.01
2019-02-08T02:46:42.121Z,1008.04
2019-02-08T02:47:42.109Z,1008.00
2019-02-08T02:48:42.091Z,1008.02
2019-02-08T02:49:42.110Z,1008.01
2019-02-08T02:50:42.076Z,1008.01
2019-02-08T02:51:42.068Z,1008.00
2019-02-08T02:52:42.048Z,1008.00
2019-02-08T02:53:42.040Z,1008.02
2019-02-08T02:54:42.104Z,1007.98
2019-02-08T02:55:42.029Z,1007.96
2019-02-08T02:56:42.019Z,1007.94
2019-02-08T02:57:41.998Z,1007.96
2019-02-08T02:58:41.977Z,1007.93
2019-02-08T02:59:42.029Z,1007.98
2019-02-08T03:00:41.956Z,1008.00
2019-02-08T03:01:41.983Z,1008.00
2019-02-08T03:02:41.939Z,1007.97
2019-02-08T03:03:41.926Z,1008.00
2019-02-08T03:04:41.910Z,1007.96
2019-02-08T03:05:41.900Z,1007.99
2019-02-08T03:06:41.901Z,1008.01
2019-02-08T03:07:41.900Z,1007.97
2019-02-08T03:08:41.913Z,1007.95
2019-02-08T03:09:41.868Z,1007.94
2019-02-08T03:10:41.849Z,1007.92
2019-02-08T03:11:41.844Z,1007.95
2019-02-08T03:12:41.834Z,1007.97
2019-02-08T03:13:41.824Z,1007.90
2019-02-08T03:14:41.805Z,1007.92
2019-02-08T03:15:41.800Z,1007.94
2019-02-08T03:16:41.790Z,1007.94
2019-02-08T03:17:41.761Z,1007.91
2019-02-08T03:18:41.773Z,1007.90
2019-02-08T03:19:41.756Z,1007.89
2019-02-08T03:20:41.779Z,1007.91
2019-02-08T03:21:41.748Z,1007.90
2019-02-08T03:22:41.708Z,1007.85
2019-02-08T03:23:41.701Z,1007.88
2019-02-08T03:24:41.738Z,1007.88
2019-02-08T03:25:41.684Z,1007.87
2019-02-08T03:26:41.677Z,1007.85
2019-02-08T03:27:41.681Z,1007.84
2019-02-08T03:28:41.641Z,1007.85
2019-02-08T03:29:41.631Z,1007.85
2019-02-08T03:30:41.640Z,1007.83
2019-02-08T03:31:41.626Z,1007.79
2019-02-08T03:32:41.611Z,1007.77
2019-02-08T03:33:41.610Z,1007.79
2019-02-08T03:34:41.582Z,1007.80
2019-02-08T03:35:41.577Z,1007.81
2019-02-08T03:36:41.557Z,1007.81
2019-02-08T03:37:41.549Z,1007.83
2019-02-08T03:38:41.560Z,1007.79
2019-02-08T03:39:41.547Z,1007.79
2019-02-08T03:40:41.534Z,1007.78
2019-02-08T03:41:41.524Z,1007.78
2019-02-08T03:42:41.493Z,1007.82
2019-02-08T03:43:41.474Z,1007.81
2019-02-08T03:44:41.461Z,1007.74
2019-02-08T03:45:41.454Z,1007.75
2019-02-08T03:46:41.479Z,1007.72
2019-02-08T03:47:41.474Z,1007.72
2019-02-08T03:48:41.413Z,1007.70
2019-02-08T03:49:41.404Z,1007.70
2019-02-08T03:50:41.412Z,1007.65
2019-02-08T03:51:41.404Z,1007.70
2019-02-08T03:52:41.385Z,1007.66
2019-02-08T03:53:41.385Z,1007.66
2019-02-08T03:54:41.382Z,1007.63
2019-02-08T03:55:41.337Z,1007.64
2019-02-08T03:56:41.340Z,1007.63
2019-02-08T03:57:41.383Z,1007.60
2019-02-08T03:58:41.303Z,1007.61
2019-02-08T03:59:41.292Z,1007.59
2019-02-08T04:00:41.297Z,1007.62
2019-02-08T04:01:41.272Z,1007.61
2019-02-08T04:02:41.277Z,1007.60
2019-02-08T04:03:41.261Z,1007.60
2019-02-08T04:04:41.237Z,1007.61
2019-02-08T04:05:41.239Z,1007.63
2019-02-08T04:06:41.237Z,1007.65
2019-02-08T04:07:41.239Z,1007.63
2019-02-08T04:08:41.190Z,1007.58
2019-02-08T04:09:41.231Z,1007.63
2019-02-08T04:10:41.184Z,1007.65
2019-02-08T04:11:41.156Z,1007.64
2019-02-08T04:12:41.200Z,1007.67
2019-02-08T04:13:41.150Z,1007.62
2019-02-08T04:14:41.158Z,1007.61
2019-02-08T04:15:41.113Z,1007.59
2019-02-08T04:16:41.102Z,1007.57
2019-02-08T04:17:41.102Z,1007.57
2019-02-08T04:18:42.538Z,1007.54
2019-02-08T04:19:41.127Z,1007.46
2019-02-08T04:20:41.067Z,1007.48
2019-02-08T04:21:41.080Z,1007.46
2019-02-08T04:22:41.094Z,1007.48
2019-02-08T04:23:41.021Z,1007.51
2019-02-08T04:24:45.735Z,1007.47
2019-02-08T04:25:41.004Z,1007.53
2019-02-08T04:26:41.020Z,1007.48
2019-02-08T04:27:40.992Z,1007.53
2019-02-08T04:28:40.966Z,1007.53
2019-02-08T04:29:40.954Z,1007.52
2019-02-08T04:30:40.954Z,1007.53
2019-02-08T04:31:42.473Z,1007.56
2019-02-08T04:32:40.944Z,1007.50
2019-02-08T04:33:40.914Z,1007.49
2019-02-08T04:34:40.918Z,1007.51
2019-02-08T04:35:40.887Z,1007.46
2019-02-08T04:36:40.885Z,1007.49
2019-02-08T04:37:40.881Z,1007.50
2019-02-08T04:38:40.872Z,1007.50
2019-02-08T04:39:40.845Z,1007.46
2019-02-08T04:40:40.852Z,1007.48
2019-02-08T04:41:40.839Z,1007.45
2019-02-08T04:42:40.818Z,1007.45
2019-02-08T04:43:40.803Z,1007.51
2019-02-08T04:44:40.809Z,1007.49
2019-02-08T04:45:40.789Z,1007.50
2019-02-08T04:46:40.767Z,1007.45
2019-02-08T04:47:40.768Z,1007.51
2019-02-08T04:48:40.783Z,1007.51
2019-02-08T04:49:40.737Z,1007.48
2019-02-08T04:50:40.722Z,1007.50
2019-02-08T04:51:40.713Z,1007.47
2019-02-08T04:52:40.705Z,1007.47
2019-02-08T04:53:40.693Z,1007.43
2019-02-08T04:54:45.268Z,1007.48
2019-02-08T04:55:40.699Z,1007.42
2019-02-08T04:56:40.676Z,1007.39
2019-02-08T04:57:40.664Z,1007.43
2019-02-08T04:58:40.633Z,1007.46
2019-02-08T04:59:40.619Z,1007.44
2019-02-08T05:00:40.611Z,1007.41
2019-02-08T05:01:40.629Z,1007.44
2019-02-08T05:02:40.619Z,1007.43
2019-02-08T05:03:40.690Z,1007.43
2019-02-08T05:04:40.571Z,1007.42
2019-02-08T05:05:40.557Z,1007.47
2019-02-08T05:06:40.538Z,1007.42
2019-02-08T05:07:40.534Z,1007.42
2019-02-08T05:08:40.550Z,1007.41
2019-02-08T05:09:40.523Z,1007.41
2019-02-08T05:10:40.494Z,1007.41
2019-02-08T05:11:40.483Z,1007.47
2019-02-08T05:12:40.497Z,1007.43
2019-02-08T05:13:40.513Z,1007.41
2019-02-08T05:14:40.452Z,1007.44
2019-02-08T05:15:40.471Z,1007.42
2019-02-08T05:16:40.436Z,1007.43
2019-02-08T05:17:40.418Z,1007.41
2019-02-08T05:18:40.403Z,1007.42
2019-02-08T05:19:40.442Z,1007.41
2019-02-08T05:20:40.389Z,1007.41
2019-02-08T05:21:40.384Z,1007.44
2019-02-08T05:22:40.362Z,1007.36
2019-02-08T05:23:40.360Z,1007.39
2019-02-08T05:24:45.899Z,1007.36
2019-02-08T05:25:41.322Z,1007.36
2019-02-08T05:26:40.315Z,1007.31
2019-02-08T05:27:40.313Z,1007.33
2019-02-08T05:28:40.332Z,1007.28
2019-02-08T05:29:40.293Z,1007.34
2019-02-08T05:30:40.270Z,1007.31
2019-02-08T05:31:40.255Z,1007.29
2019-02-08T05:32:40.279Z,1007.29
2019-02-08T05:33:40.236Z,1007.31
2019-02-08T05:34:40.329Z,1007.32
2019-02-08T05:35:40.222Z,1007.28
2019-02-08T05:36:40.199Z,1007.31
2019-02-08T05:37:40.200Z,1007.30
2019-02-08T05:38:40.185Z,1007.29
2019-02-08T05:39:40.176Z,1007.31
2019-02-08T05:40:40.250Z,1007.28
2019-02-08T05:41:40.144Z,1007.31
2019-02-08T05:42:40.165Z,1007.30
2019-02-08T05:43:40.133Z,1007.26
2019-02-08T05:44:40.115Z,1007.27
2019-02-08T05:45:40.102Z,1007.32
2019-02-08T05:46:40.098Z,1007.31
2019-02-08T05:47:40.085Z,1007.27
2019-02-08T05:48:40.073Z,1007.28
2019-02-08T05:49:40.088Z,1007.30
2019-02-08T05:50:40.043Z,1007.25
2019-02-08T05:51:40.037Z,1007.30
2019-02-08T05:52:40.050Z,1007.28
2019-02-08T05:53:40.016Z,1007.27
2019-02-08T05:54:40.060Z,1007.26
2019-02-08T05:55:40.008Z,1007.27
2019-02-08T05:56:39.990Z,1007.27
2019-02-08T05:57:39.995Z,1007.24
2019-02-08T05:58:39.987Z,1007.24
2019-02-08T05:59:39.942Z,1007.22
2019-02-08T06:00:39.949Z,1007.25
2019-02-08T06:01:39.926Z,1007.22
2019-02-08T06:02:39.947Z,1007.23
2019-02-08T06:03:39.901Z,1007.23
2019-02-08T06:04:39.892Z,1007.21
2019-02-08T06:05:39.910Z,1007.23
2019-02-08T06:06:39.874Z,1007.23
2019-02-08T06:07:39.886Z,1007.22
2019-02-08T06:08:39.853Z,1007.21
2019-02-08T06:09:39.875Z,1007.26
2019-02-08T06:10:39.829Z,1007.23
2019-02-08T06:11:39.805Z,1007.19
2019-02-08T06:12:39.802Z,1007.19
2019-02-08T06:13:39.917Z,1007.22
2019-02-08T06:14:46.281Z,1007.21
2019-02-08T06:15:41.578Z,1007.25
2019-02-08T06:16:39.750Z,1007.27
2019-02-08T06:17:39.737Z,1007.30
2019-02-08T06:18:39.741Z,1007.26
2019-02-08T06:19:39.722Z,1007.32
2019-02-08T06:20:39.727Z,1007.33
2019-02-08T06:21:39.749Z,1007.31
2019-02-08T06:22:39.693Z,1007.33
2019-02-08T06:23:39.686Z,1007.33
2019-02-08T06:24:39.695Z,1007.34
2019-02-08T06:25:39.684Z,1007.31
2019-02-08T06:26:39.654Z,1007.29
2019-02-08T06:27:39.643Z,1007.28
2019-02-08T06:28:39.632Z,1007.25
2019-02-08T06:29:39.605Z,1007.25
2019-02-08T06:30:39.622Z,1007.23
2019-02-08T06:31:39.676Z,1007.27
2019-02-08T06:32:39.571Z,1007.24
2019-02-08T06:33:39.597Z,1007.24
2019-02-08T06:34:41.249Z,1007.27
2019-02-08T06:35:39.540Z,1007.28
2019-02-08T06:36:39.566Z,1007.29
2019-02-08T06:37:44.361Z,1007.28
2019-02-08T06:38:40.521Z,1007.26
2019-02-08T06:39:39.548Z,1007.30
2019-02-08T06:40:39.484Z,1007.23
2019-02-08T06:41:39.497Z,1007.28
2019-02-08T06:42:39.468Z,1007.27
2019-02-08T06:43:39.459Z,1007.25
2019-02-08T06:44:39.436Z,1007.27
2019-02-08T06:45:39.436Z,1007.31
2019-02-08T06:46:39.438Z,1007.25
2019-02-08T06:47:39.413Z,1007.29
2019-02-08T06:48:39.458Z,1007.27
2019-02-08T06:49:39.396Z,1007.27
2019-02-08T06:50:39.375Z,1007.28
2019-02-08T06:51:39.385Z,1007.37
2019-02-08T06:52:39.349Z,1007.34
2019-02-08T06:53:39.333Z,1007.31
2019-02-08T06:54:39.376Z,1007.38
2019-02-08T06:55:39.311Z,1007.39
2019-02-08T06:56:39.320Z,1007.36
2019-02-08T06:57:39.301Z,1007.33
2019-02-08T06:58:39.303Z,1007.29
2019-02-08T06:59:39.317Z,1007.33
2019-02-08T07:00:39.279Z,1007.35
2019-02-08T07:01:39.247Z,1007.30
2019-02-08T07:02:39.264Z,1007.33
2019-02-08T07:03:39.254Z,1007.29
2019-02-08T07:04:39.254Z,1007.33
2019-02-08T07:05:39.214Z,1007.34
2019-02-08T07:06:39.232Z,1007.29
2019-02-08T07:07:39.218Z,1007.31
2019-02-08T07:08:39.201Z,1007.29
2019-02-08T07:09:39.183Z,1007.31
2019-02-08T07:10:39.149Z,1007.30
2019-02-08T07:11:39.166Z,1007.30
2019-02-08T07:12:39.142Z,1007.27
2019-02-08T07:13:39.110Z,1007.34
2019-02-08T07:14:39.116Z,1007.38
2019-02-08T07:15:39.119Z,1007.34
2019-02-08T07:16:39.137Z,1007.39
2019-02-08T07:17:39.105Z,1007.35
2019-02-08T07:18:39.063Z,1007.36
2019-02-08T07:19:39.041Z,1007.34
2019-02-08T07:20:39.087Z,1007.37
2019-02-08T07:21:39.029Z,1007.40
2019-02-08T07:22:39.112Z,1007.35
2019-02-08T07:23:39.003Z,1007.36
2019-02-08T07:24:39.165Z,1007.37
2019-02-08T07:25:38.975Z,1007.35
2019-02-08T07:26:39.009Z,1007.31
2019-02-08T07:27:38.987Z,1007.32
2019-02-08T07:28:39.081Z,1007.30
2019-02-08T07:29:38.948Z,1007.31
2019-02-08T07:30:38.935Z,1007.28
2019-02-08T07:31:38.944Z,1007.32
2019-02-08T07:32:38.910Z,1007.34
2019-02-08T07:33:38.892Z,1007.28
2019-02-08T07:34:39.250Z,1007.21
2019-02-08T07:35:39.950Z,1007.28
2019-02-08T07:36:38.854Z,1007.24
2019-02-08T07:37:38.855Z,1007.26
2019-02-08T07:38:38.830Z,1007.26
2019-02-08T07:39:39.027Z,1007.18
2019-02-08T07:40:38.852Z,1007.16
2019-02-08T07:41:38.818Z,1007.14
2019-02-08T07:42:38.808Z,1007.19
2019-02-08T07:43:38.778Z,1007.20
2019-02-08T07:44:38.796Z,1007.17
2019-02-08T07:45:38.822Z,1007.17
2019-02-08T07:46:38.752Z,1007.19
2019-02-08T07:47:38.738Z,1007.21
2019-02-08T07:48:38.825Z,1007.22
2019-02-08T07:49:38.773Z,1007.21
2019-02-08T07:50:38.702Z,1007.22
2019-02-08T07:51:38.717Z,1007.24
2019-02-08T07:52:38.763Z,1007.26
2019-02-08T07:53:38.677Z,1007.29
2019-02-08T07:54:38.668Z,1007.27
2019-02-08T07:55:38.713Z,1007.33
2019-02-08T07:56:38.659Z,1007.25
2019-02-08T07:57:38.623Z,1007.31
2019-02-08T07:58:38.649Z,1007.23
2019-02-08T07:59:38.614Z,1007.28
2019-02-08T08:00:38.617Z,1007.31
2019-02-08T08:01:38.586Z,1007.33
2019-02-08T08:02:38.565Z,1007.29
2019-02-08T08:03:38.922Z,1007.27
2019-02-08T08:04:38.618Z,1007.33
2019-02-08T08:05:38.669Z,1007.31
2019-02-08T08:06:39.306Z,1007.37
2019-02-08T08:07:38.520Z,1007.35
2019-02-08T08:08:38.531Z,1007.33
2019-02-08T08:09:38.618Z,1007.39
2019-02-08T08:10:38.486Z,1007.37
2019-02-08T08:11:38.465Z,1007.38
2019-02-08T08:12:38.502Z,1007.38
2019-02-08T08:13:38.457Z,1007.43
2019-02-08T08:14:38.429Z,1007.42
2019-02-08T08:15:38.416Z,1007.43
2019-02-08T08:16:38.403Z,1007.42
2019-02-08T08:17:38.404Z,1007.41
2019-02-08T08:18:38.430Z,1007.43
2019-02-08T08:19:38.389Z,1007.43
2019-02-08T08:20:38.387Z,1007.46
2019-02-08T08:21:38.358Z,1007.45
2019-02-08T08:22:38.333Z,1007.41
2019-02-08T08:23:38.392Z,1007.40
2019-02-08T08:24:38.378Z,1007.39
2019-02-08T08:25:38.394Z,1007.37
2019-02-08T08:26:38.290Z,1007.35
2019-02-08T08:27:38.278Z,1007.34
2019-02-08T08:28:38.302Z,1007.38
2019-02-08T08:29:38.283Z,1007.38
2019-02-08T08:30:38.383Z,1007.32
2019-02-08T08:31:38.309Z,1007.35
2019-02-08T08:32:38.222Z,1007.42
2019-02-08T08:33:38.220Z,1007.36
2019-02-08T08:34:38.227Z,1007.42
2019-02-08T08:35:38.206Z,1007.39
2019-02-08T08:36:38.187Z,1007.36
2019-02-08T08:37:38.167Z,1007.34
2019-02-08T08:38:38.219Z,1007.36
2019-02-08T08:39:38.359Z,1007.29
2019-02-08T08:40:38.285Z,1007.30
2019-02-08T08:41:38.180Z,1007.33
2019-02-08T08:42:38.116Z,1007.30
2019-02-08T08:43:38.259Z,1007.29
2019-02-08T08:44:38.140Z,1007.31
2019-02-08T08:45:38.161Z,1007.30
2019-02-08T08:46:38.147Z,1007.33
2019-02-08T08:47:38.060Z,1007.28
2019-02-08T08:48:38.109Z,1007.28
2019-02-08T08:49:38.072Z,1007.29
2019-02-08T08:50:38.045Z,1007.37
2019-02-08T08:51:38.011Z,1007.34
2019-02-08T08:52:38.032Z,1007.30
2019-02-08T08:53:38.034Z,1007.25
2019-02-08T08:54:37.986Z,1007.26
2019-02-08T08:55:42.341Z,1007.23
2019-02-08T08:56:37.964Z,1007.21
2019-02-08T08:57:37.946Z,1007.24
2019-02-08T08:58:37.980Z,1007.21
2019-02-08T08:59:37.961Z,1007.17
2019-02-08T09:00:37.939Z,1007.21
2019-02-08T09:01:37.905Z,1007.22
2019-02-08T09:02:37.914Z,1007.18
2019-02-08T09:03:37.892Z,1007.21
2019-02-08T09:04:37.869Z,1007.17
2019-02-08T09:05:37.861Z,1007.16
2019-02-08T09:06:37.875Z,1007.16
2019-02-08T09:07:37.844Z,1007.14
2019-02-08T09:08:37.822Z,1007.17
2019-02-08T09:09:37.831Z,1007.15
2019-02-08T09:10:37.824Z,1007.11
2019-02-08T09:11:37.858Z,1007.18
2019-02-08T09:12:37.828Z,1007.16
2019-02-08T09:13:37.768Z,1007.13
2019-02-08T09:14:37.775Z,1007.10
2019-02-08T09:15:37.737Z,1007.06
2019-02-08T09:16:37.899Z,1007.07
2019-02-08T09:17:37.745Z,1007.07
2019-02-08T09:18:37.710Z,1007.01
2019-02-08T09:19:37.823Z,1007.02
2019-02-08T09:20:39.047Z,1006.95
2019-02-08T09:21:37.747Z,1006.95
2019-02-08T09:22:37.731Z,1006.94
2019-02-08T09:23:37.677Z,1007.01
2019-02-08T09:24:37.640Z,1006.95
2019-02-08T09:25:37.712Z,1006.98
2019-02-08T09:26:37.639Z,1006.92
2019-02-08T09:27:37.929Z,1006.95
2019-02-08T09:28:37.590Z,1006.90
2019-02-08T09:29:37.816Z,1006.92
2019-02-08T09:30:37.603Z,1006.91
2019-02-08T09:31:37.646Z,1006.92
2019-02-08T09:32:37.554Z,1006.94
2019-02-08T09:33:37.612Z,1006.96
2019-02-08T09:34:37.573Z,1006.93
2019-02-08T09:35:37.568Z,1006.93
2019-02-08T09:36:37.578Z,1006.93
2019-02-08T09:37:37.495Z,1006.94
2019-02-08T09:38:37.496Z,1006.91
2019-02-08T09:39:37.493Z,1006.93
2019-02-08T09:40:37.527Z,1006.88
2019-02-08T09:41:37.453Z,1006.88
2019-02-08T09:42:37.459Z,1006.85
2019-02-08T09:43:37.427Z,1006.86
2019-02-08T09:44:37.427Z,1006.85
2019-02-08T09:45:37.664Z,1006.79
2019-02-08T09:46:37.437Z,1006.83
2019-02-08T09:47:37.379Z,1006.79
2019-02-08T09:48:37.423Z,1006.79
2019-02-08T09:49:37.357Z,1006.74
2019-02-08T09:50:37.797Z,1006.73
2019-02-08T09:51:37.373Z,1006.72
2019-02-08T09:52:37.340Z,1006.69
2019-02-08T09:53:37.317Z,1006.72
2019-02-08T09:54:37.323Z,1006.70
2019-02-08T09:55:37.445Z,1006.71
2019-02-08T09:56:37.317Z,1006.69
2019-02-08T09:57:37.295Z,1006.68
2019-02-08T09:58:37.298Z,1006.68
2019-02-08T09:59:37.316Z,1006.67
2019-02-08T10:00:37.286Z,1006.64
2019-02-08T10:01:37.279Z,1006.64
2019-02-08T10:02:37.223Z,1006.57
2019-02-08T10:03:37.234Z,1006.63
2019-02-08T10:04:37.201Z,1006.59
2019-02-08T10:05:37.194Z,1006.58
2019-02-08T10:06:37.175Z,1006.61
2019-02-08T10:07:37.181Z,1006.58
2019-02-08T10:08:37.148Z,1006.57
2019-02-08T10:09:37.140Z,1006.56
2019-02-08T10:10:37.132Z,1006.54
2019-02-08T10:11:37.123Z,1006.51
2019-02-08T10:12:37.106Z,1006.55
2019-02-08T10:13:37.101Z,1006.51
2019-02-08T10:14:37.157Z,1006.44
2019-02-08T10:15:37.091Z,1006.42
2019-02-08T10:16:37.067Z,1006.38
2019-02-08T10:17:37.067Z,1006.48
2019-02-08T10:18:37.032Z,1006.50
2019-02-08T10:19:37.074Z,1006.49
2019-02-08T10:20:37.017Z,1006.49
2019-02-08T10:21:37.053Z,1006.45
2019-02-08T10:22:36.997Z,1006.44
2019-02-08T10:23:36.990Z,1006.45
2019-02-08T10:24:36.978Z,1006.45
2019-02-08T10:25:37.058Z,1006.40
2019-02-08T10:26:37.056Z,1006.42
2019-02-08T10:27:36.938Z,1006.37
2019-02-08T10:28:36.991Z,1006.36
2019-02-08T10:29:36.948Z,1006.30
2019-02-08T10:30:36.896Z,1006.37
2019-02-08T10:31:36.982Z,1006.34
2019-02-08T10:32:36.871Z,1006.31
2019-02-08T10:33:36.905Z,1006.38
2019-02-08T10:34:36.853Z,1006.33
2019-02-08T10:35:36.885Z,1006.36
2019-02-08T10:36:36.918Z,1006.32
2019-02-08T10:37:36.820Z,1006.35
2019-02-08T10:38:36.808Z,1006.35
2019-02-08T10:39:36.801Z,1006.34
2019-02-08T10:40:36.787Z,1006.31
2019-02-08T10:41:36.785Z,1006.35
2019-02-08T10:42:36.815Z,1006.30
2019-02-08T10:43:36.751Z,1006.28
2019-02-08T10:44:36.741Z,1006.24
2019-02-08T10:45:36.781Z,1006.25
2019-02-08T10:46:36.748Z,1006.27
2019-02-08T10:47:36.711Z,1006.34
2019-02-08T10:48:36.719Z,1006.32
2019-02-08T10:49:36.738Z,1006.31
2019-02-08T10:50:36.692Z,1006.29
2019-02-08T10:51:36.696Z,1006.25
2019-02-08T10:52:44.507Z,1006.29
2019-02-08T10:53:36.740Z,1006.28
2019-02-08T10:54:36.636Z,1006.24
2019-02-08T10:55:36.747Z,1006.19
2019-02-08T10:56:36.606Z,1006.19
2019-02-08T10:57:36.666Z,1006.15
2019-02-08T10:58:38.128Z,1006.18
2019-02-08T10:59:37.014Z,1006.21
2019-02-08T11:00:36.627Z,1006.18
2019-02-08T11:01:41.725Z,1006.22
2019-02-08T11:02:38.363Z,1006.13
2019-02-08T11:03:37.545Z,1006.11
2019-02-08T11:04:36.536Z,1006.11
2019-02-08T11:05:36.571Z,1006.11
2019-02-08T11:06:43.835Z,1006.09
2019-02-08T11:07:36.486Z,1006.12
2019-02-08T11:08:36.522Z,1006.12
2019-02-08T11:09:36.462Z,1006.09
2019-02-08T11:10:36.455Z,1006.09
2019-02-08T11:11:36.439Z,1006.05
2019-02-08T11:12:36.443Z,1006.04
2019-02-08T11:13:36.442Z,1006.03
2019-02-08T11:14:36.428Z,1006.04
2019-02-08T11:15:36.410Z,1005.96
2019-02-08T11:16:36.388Z,1005.97
2019-02-08T11:17:36.383Z,1005.92
2019-02-08T11:18:36.380Z,1005.92
2019-02-08T11:19:36.356Z,1005.87
2019-02-08T11:20:36.350Z,1005.93
2019-02-08T11:21:36.332Z,1005.89
2019-02-08T11:22:36.385Z,1005.93
2019-02-08T11:23:36.312Z,1005.83
2019-02-08T11:24:36.362Z,1005.84
2019-02-08T11:25:36.301Z,1005.89
2019-02-08T11:26:36.265Z,1005.88
2019-02-08T11:27:36.300Z,1005.79
2019-02-08T11:28:36.379Z,1005.81
2019-02-08T11:29:36.298Z,1005.84
2019-02-08T11:30:36.247Z,1005.78
2019-02-08T11:31:36.285Z,1005.65
2019-02-08T11:32:43.196Z,1005.79
2019-02-08T11:33:37.194Z,1005.79
2019-02-08T11:34:36.181Z,1005.76
2019-02-08T11:35:36.234Z,1005.68
2019-02-08T11:36:36.174Z,1005.72
2019-02-08T11:37:36.166Z,1005.76
2019-02-08T11:38:36.190Z,1005.70
2019-02-08T11:39:36.566Z,1005.68
2019-02-08T11:40:36.153Z,1005.66
2019-02-08T11:41:36.106Z,1005.64
2019-02-08T11:42:36.107Z,1005.61
2019-02-08T11:43:36.098Z,1005.56
2019-02-08T11:44:36.108Z,1005.53
2019-02-08T11:45:36.077Z,1005.47
2019-02-08T11:46:36.053Z,1005.54
2019-02-08T11:47:36.039Z,1005.46
2019-02-08T11:48:36.165Z,1005.48
2019-02-08T11:49:36.017Z,1005.49
2019-02-08T11:50:36.028Z,1005.46
2019-02-08T11:51:36.005Z,1005.46
2019-02-08T11:52:35.986Z,1005.48
2019-02-08T11:53:36.019Z,1005.48
2019-02-08T11:54:35.989Z,1005.47
2019-02-08T11:55:35.979Z,1005.46
2019-02-08T11:56:36.027Z,1005.41
2019-02-08T11:57:35.991Z,1005.39
2019-02-08T11:58:35.933Z,1005.39
2019-02-08T11:59:35.894Z,1005.43
2019-02-08T12:00:35.946Z,1005.40
2019-02-08T12:01:35.882Z,1005.35
2019-02-08T12:02:40.362Z,1005.37
2019-02-08T12:03:35.866Z,1005.38
2019-02-08T12:04:35.844Z,1005.35
2019-02-08T12:05:35.829Z,1005.28